createdAt,value
2022-12-08T00:01:10.913Z,18.40
2022-12-08T00:03:37.499Z,19.98
2022-12-08T00:06:23.177Z,21.77
2022-12-08T00:09:08.308Z,26.23
2022-12-08T00:11:34.659Z,23.77
2022-12-08T00:14:01.148Z,21.30
2022-12-08T00:16:27.595Z,27.85
2022-12-08T00:18:54.079Z,22.50
2022-12-08T00:21:20.387Z,24.23
2022-12-08T00:23:46.660Z,22.50
2022-12-08T00:26:12.935Z,23.92
2022-12-08T00:28:39.221Z,22.92
2022-12-08T00:31:09.287Z,25.02
2022-12-08T00:33:36.080Z,26.48
2022-12-08T00:36:06.319Z,28.58
2022-12-08T00:38:32.652Z,29.00
2022-12-08T00:40:59.013Z,27.35
2022-12-08T00:43:25.384Z,25.20
2022-12-08T00:45:51.795Z,24.90
2022-12-08T00:48:18.191Z,25.73
2022-12-08T00:50:44.538Z,22.98
2022-12-08T00:53:10.864Z,26.20
2022-12-08T00:55:37.169Z,22.25
2022-12-08T00:58:03.485Z,23.92
2022-12-08T01:00:29.785Z,23.75
2022-12-08T01:02:56.127Z,20.38
2022-12-08T01:05:22.496Z,24.25
2022-12-08T01:07:49.374Z,24.30
2022-12-08T01:10:16.256Z,20.92
2022-12-08T01:12:42.528Z,22.92
2022-12-08T01:15:09.004Z,23.58
2022-12-08T01:17:36.697Z,23.10
2022-12-08T01:20:03.730Z,26.60
2022-12-08T01:22:30.512Z,23.48
2022-12-08T01:24:56.914Z,27.83
2022-12-08T01:27:23.261Z,26.77
2022-12-08T01:29:49.577Z,25.77
2022-12-08T01:32:15.899Z,26.35
2022-12-08T01:34:42.488Z,29.45
2022-12-08T01:37:08.851Z,29.42
2022-12-08T01:39:36.382Z,29.58
2022-12-08T01:42:02.671Z,31.85
2022-12-08T01:44:28.963Z,25.30
2022-12-08T01:46:55.323Z,25.63
2022-12-08T01:49:21.574Z,28.15
2022-12-08T01:51:47.816Z,29.92
2022-12-08T01:54:14.323Z,28.38
2022-12-08T01:56:50.404Z,29.40
2022-12-08T01:59:17.203Z,27.73
2022-12-08T02:01:43.652Z,28.15
2022-12-08T02:04:10.215Z,27.05
2022-12-08T02:06:39.477Z,28.23
2022-12-08T02:09:06.599Z,32.63
2022-12-08T02:11:32.981Z,30.45
2022-12-08T02:14:00.525Z,28.02
2022-12-08T02:16:26.935Z,26.88
2022-12-08T02:19:29.671Z,31.95
2022-12-08T02:22:00.639Z,31.60
2022-12-08T02:24:33.149Z,30.08
2022-12-08T02:27:18.346Z,34.08
2022-12-08T02:30:05.944Z,32.78
2022-12-08T02:32:41.727Z,32.80
2022-12-08T02:35:10.730Z,34.85
2022-12-08T02:38:03.327Z,38.13
2022-12-08T02:40:29.583Z,38.45
2022-12-08T02:43:06.316Z,31.88
2022-12-08T02:46:02.177Z,33.90
2022-12-08T02:48:29.173Z,29.35
2022-12-08T02:50:55.784Z,28.73
2022-12-08T02:53:22.039Z,33.20
2022-12-08T02:56:07.080Z,31.73
2022-12-08T02:58:52.199Z,33.40
2022-12-08T03:01:29.651Z,34.05
2022-12-08T03:03:59.023Z,36.47
2022-12-08T03:06:31.089Z,29.50
2022-12-08T03:08:59.966Z,33.70
2022-12-08T03:11:44.772Z,34.90
2022-12-08T03:14:13.496Z,35.38
2022-12-08T03:16:42.612Z,37.08
2022-12-08T03:19:11.034Z,33.50
2022-12-08T03:21:38.216Z,38.88
2022-12-08T03:24:06.112Z,36.33
2022-12-08T03:26:48.278Z,38.10
2022-12-08T03:29:14.611Z,37.47
2022-12-08T03:31:44.574Z,44.22
2022-12-08T03:34:11.821Z,37.22
2022-12-08T03:36:38.451Z,45.67
2022-12-08T03:39:04.742Z,38.45
2022-12-08T03:41:31.193Z,38.47
2022-12-08T03:43:59.333Z,43.42
2022-12-08T03:48:51.936Z,42.92
2022-12-08T03:51:18.971Z,43.80
2022-12-08T03:53:45.887Z,38.72
2022-12-08T03:56:15.607Z,35.33
2022-12-08T03:58:42.539Z,44.65
2022-12-08T04:01:08.890Z,38.88
2022-12-08T04:03:35.236Z,43.53
2022-12-08T04:06:01.551Z,45.95
2022-12-08T04:08:27.907Z,43.60
2022-12-08T04:10:54.267Z,38.60
2022-12-08T04:13:20.687Z,43.92
2022-12-08T04:15:48.100Z,45.55
2022-12-08T04:18:14.867Z,36.92
2022-12-08T04:20:41.791Z,45.53
2022-12-08T04:23:08.422Z,43.17
2022-12-08T04:25:34.936Z,42.67
2022-12-08T04:28:01.556Z,48.40
2022-12-08T04:30:27.867Z,43.03
2022-12-08T04:32:54.122Z,46.13
2022-12-08T04:35:20.415Z,44.85
2022-12-08T04:37:46.695Z,47.60
2022-12-08T04:40:13.236Z,46.05
2022-12-08T04:42:39.567Z,43.55
2022-12-08T04:45:06.427Z,42.30
2022-12-08T04:47:32.887Z,40.78
2022-12-08T04:49:59.356Z,40.67
2022-12-08T04:52:25.674Z,39.40
2022-12-08T04:54:52.025Z,44.30
2022-12-08T04:57:18.513Z,44.85
2022-12-08T04:59:44.825Z,36.65
2022-12-08T05:02:11.254Z,38.60
2022-12-08T05:04:37.659Z,40.63
2022-12-08T05:07:03.927Z,37.47
2022-12-08T05:09:30.208Z,33.72
2022-12-08T05:11:56.499Z,36.50
2022-12-08T05:14:22.864Z,32.47
2022-12-08T05:16:49.308Z,32.90
2022-12-08T05:19:16.121Z,35.35
2022-12-08T05:21:42.745Z,32.92
2022-12-08T05:24:09.079Z,34.90
2022-12-08T05:26:35.359Z,32.20
2022-12-08T05:29:01.678Z,38.92
2022-12-08T05:31:28.123Z,32.30
2022-12-08T05:33:57.376Z,32.50
2022-12-08T05:36:26.002Z,33.65
2022-12-08T05:38:52.336Z,31.55
2022-12-08T05:41:19.934Z,33.97
2022-12-08T05:43:46.439Z,34.17
2022-12-08T05:46:13.132Z,35.03
2022-12-08T05:48:39.617Z,32.97
2022-12-08T05:51:07.453Z,33.20
2022-12-08T05:53:33.744Z,33.55
2022-12-08T05:56:00.153Z,34.15
2022-12-08T05:58:26.509Z,37.30
2022-12-08T06:00:52.848Z,37.70
2022-12-08T06:03:19.967Z,33.47
2022-12-08T06:05:47.071Z,29.58
2022-12-08T06:08:14.011Z,32.92
2022-12-08T06:10:41.365Z,35.97
2022-12-08T06:13:07.995Z,31.38
2022-12-08T06:15:37.310Z,32.15
2022-12-08T06:18:04.453Z,30.38
2022-12-08T06:20:30.796Z,33.33
2022-12-08T06:22:57.473Z,29.73
2022-12-08T06:25:24.099Z,27.45
2022-12-08T06:27:50.487Z,28.80
2022-12-08T06:30:17.287Z,27.88
2022-12-08T06:32:43.920Z,28.45
2022-12-08T06:35:10.247Z,28.55
2022-12-08T06:37:36.796Z,27.42
2022-12-08T06:40:03.693Z,24.95
2022-12-08T06:42:46.741Z,31.83
2022-12-08T06:45:14.236Z,30.77
2022-12-08T06:47:40.796Z,30.50
2022-12-08T06:50:08.021Z,30.42
2022-12-08T06:52:37.699Z,29.63
2022-12-08T06:55:07.782Z,28.70
2022-12-08T06:57:34.110Z,31.67
2022-12-08T07:00:00.432Z,24.88
2022-12-08T07:02:26.810Z,25.30
2022-12-08T07:04:53.262Z,25.15
2022-12-08T07:07:19.652Z,29.42
2022-12-08T07:09:45.944Z,28.02
2022-12-08T07:12:12.269Z,25.58
2022-12-08T07:14:38.610Z,24.85
2022-12-08T07:17:05.039Z,23.08
2022-12-08T07:19:32.799Z,25.58
2022-12-08T07:21:59.082Z,25.02
2022-12-08T07:24:25.467Z,26.13
2022-12-08T07:26:51.871Z,26.92
2022-12-08T07:29:23.056Z,23.85
2022-12-08T07:31:52.267Z,29.67
2022-12-08T07:34:18.565Z,28.80
2022-12-08T07:36:44.855Z,26.55
2022-12-08T07:39:11.167Z,24.90
2022-12-08T07:41:37.523Z,24.48
2022-12-08T07:44:04.308Z,27.73
2022-12-08T07:46:30.631Z,26.30
2022-12-08T07:48:57.101Z,25.75
2022-12-08T07:51:24.733Z,25.75
2022-12-08T07:53:54.135Z,27.85
2022-12-08T07:56:21.534Z,25.23
2022-12-08T07:58:47.882Z,27.58
2022-12-08T08:01:25.157Z,25.10
2022-12-08T08:03:51.903Z,27.52
2022-12-08T08:06:18.213Z,25.75
2022-12-08T08:08:44.541Z,22.98
2022-12-08T08:11:18.942Z,23.73
2022-12-08T08:13:47.458Z,21.95
2022-12-08T08:16:13.918Z,24.17
2022-12-08T08:18:40.660Z,22.30
2022-12-08T08:21:43.286Z,19.73
2022-12-08T08:23:53.670Z,24.00
2022-12-08T08:26:20.015Z,20.67
2022-12-08T08:28:46.350Z,20.70
2022-12-08T08:31:12.864Z,19.92
2022-12-08T08:33:39.199Z,23.48
2022-12-08T08:36:09.007Z,22.60
2022-12-08T08:38:36.021Z,20.50
2022-12-08T08:41:07.046Z,22.67
2022-12-08T08:43:38.140Z,22.23
2022-12-08T08:46:05.873Z,21.52
2022-12-08T08:48:32.826Z,20.92
2022-12-08T08:51:05.968Z,18.70
2022-12-08T08:53:32.331Z,22.30
2022-12-08T08:56:01.575Z,19.95
2022-12-08T08:58:29.029Z,21.88
2022-12-08T09:00:55.306Z,21.45
2022-12-08T09:03:21.707Z,21.88
2022-12-08T09:05:48.048Z,20.00
2022-12-08T09:08:14.647Z,19.23
2022-12-08T09:10:40.973Z,18.83
2022-12-08T09:13:07.335Z,19.00
2022-12-08T09:15:33.682Z,18.85
2022-12-08T09:18:00.065Z,19.15
2022-12-08T09:20:26.437Z,19.27
2022-12-08T09:22:52.819Z,18.33
2022-12-08T09:25:19.122Z,19.60
2022-12-08T09:27:45.409Z,19.75
2022-12-08T09:30:11.794Z,21.27
2022-12-08T09:32:38.143Z,16.65
2022-12-08T09:35:04.687Z,17.92
2022-12-08T09:37:31.113Z,14.55
2022-12-08T09:39:57.507Z,17.15
2022-12-08T09:42:36.735Z,17.45
2022-12-08T09:45:04.882Z,16.60
2022-12-08T09:47:42.661Z,14.90
2022-12-08T09:50:27.712Z,15.65
2022-12-08T09:53:06.168Z,15.98
2022-12-08T09:55:45.230Z,15.70
2022-12-08T09:58:20.173Z,16.08
2022-12-08T10:00:46.689Z,13.65
2022-12-08T10:03:16.687Z,15.02
2022-12-08T10:05:49.659Z,15.07
2022-12-08T10:08:21.117Z,15.13
2022-12-08T10:10:50.807Z,13.38
2022-12-08T10:13:21.943Z,13.07
2022-12-08T10:16:06.948Z,12.88
2022-12-08T10:18:34.510Z,13.00
2022-12-08T10:21:18.133Z,13.15
2022-12-08T10:23:46.006Z,13.20
2022-12-08T10:26:14.709Z,10.13
2022-12-08T10:28:44.865Z,10.40
2022-12-08T10:31:19.807Z,10.45
2022-12-08T10:33:47.034Z,10.27
2022-12-08T10:36:13.680Z,11.57
2022-12-08T10:38:40.380Z,8.63
2022-12-08T10:41:11.320Z,9.15
2022-12-08T10:43:39.412Z,8.63
2022-12-08T10:46:11.321Z,9.70
2022-12-08T10:48:46.601Z,10.77
2022-12-08T10:51:22.005Z,8.43
2022-12-08T10:53:48.291Z,8.95
2022-12-08T10:56:15.472Z,9.88
2022-12-08T10:58:46.066Z,10.10
2022-12-08T11:01:15.401Z,9.93
2022-12-08T11:03:55.038Z,11.48
2022-12-08T11:06:23.267Z,7.72
2022-12-08T11:08:53.828Z,9.82
2022-12-08T11:11:27.604Z,8.77
2022-12-08T11:13:55.756Z,8.00
2022-12-08T11:16:22.860Z,8.77
2022-12-08T11:18:55.585Z,6.70
2022-12-08T11:21:29.924Z,7.88
2022-12-08T11:23:56.223Z,7.82
2022-12-08T11:26:28.678Z,6.35
2022-12-08T11:28:55.580Z,7.70
2022-12-08T11:31:30.272Z,5.72
2022-12-08T11:33:56.957Z,9.43
2022-12-08T11:36:25.574Z,7.97
2022-12-08T11:38:59.841Z,6.47
2022-12-08T11:41:28.698Z,6.55
2022-12-08T11:43:58.366Z,6.80
2022-12-08T11:46:32.352Z,8.75
2022-12-08T11:49:08.764Z,7.97
2022-12-08T11:51:37.532Z,8.77
2022-12-08T11:54:13.483Z,11.38
2022-12-08T11:56:48.463Z,9.25
2022-12-08T11:59:27.869Z,7.40
2022-12-08T12:01:54.475Z,12.27
2022-12-08T12:04:37.101Z,13.00
2022-12-08T12:07:12.504Z,7.90
2022-12-08T12:09:57.775Z,8.60
2022-12-08T12:12:44.040Z,10.35
2022-12-08T12:15:25.202Z,8.77
2022-12-08T12:17:54.285Z,8.90
2022-12-08T12:20:20.612Z,9.50
2022-12-08T12:22:49.816Z,9.60
2022-12-08T12:25:18.073Z,7.47
2022-12-08T12:27:45.058Z,8.50
2022-12-08T12:30:25.194Z,8.75
2022-12-08T12:32:53.917Z,10.75
2022-12-08T12:35:40.533Z,26.17
2022-12-08T12:38:28.977Z,7.55
2022-12-08T12:40:59.692Z,8.90
2022-12-08T12:43:29.399Z,16.17
2022-12-08T12:46:15.723Z,7.35
2022-12-08T12:48:42.200Z,80.53
2022-12-08T12:51:28.436Z,16.70
2022-12-08T12:53:54.876Z,7.70
2022-12-08T12:56:46.679Z,9.18
2022-12-08T12:59:28.387Z,8.48
2022-12-08T13:01:55.635Z,8.98
2022-12-08T13:04:33.753Z,10.40
2022-12-08T13:07:00.300Z,8.88
2022-12-08T13:09:39.174Z,7.22
2022-12-08T13:12:19.101Z,7.90
2022-12-08T13:14:47.392Z,7.15
2022-12-08T13:17:16.433Z,7.18
2022-12-08T13:19:51.410Z,7.28
2022-12-08T13:22:37.148Z,8.05
2022-12-08T13:25:22.398Z,7.57
2022-12-08T13:27:53.395Z,6.43
2022-12-08T13:30:42.397Z,10.90
2022-12-08T13:33:19.284Z,9.48
2022-12-08T13:35:49.045Z,10.63
2022-12-08T13:38:17.153Z,8.20
2022-12-08T13:40:43.774Z,8.38
2022-12-08T13:43:10.009Z,7.63
2022-12-08T13:46:34.706Z,8.85
2022-12-08T13:48:56.198Z,9.80
2022-12-08T13:53:22.434Z,8.57
2022-12-08T13:57:11.807Z,7.75
2022-12-08T13:59:43.048Z,8.07
2022-12-08T14:02:18.071Z,8.23
2022-12-08T14:05:16.843Z,9.30
2022-12-08T14:07:32.531Z,28.85
2022-12-08T14:09:59.761Z,23.77
2022-12-08T14:12:29.834Z,17.55
2022-12-08T14:15:03.856Z,23.35
2022-12-08T14:17:30.815Z,14.23
2022-12-08T14:20:01.773Z,8.40
2022-12-08T14:22:35.586Z,7.47
2022-12-08T14:27:31.932Z,20.17
2022-12-08T14:29:59.977Z,11.32
2022-12-08T14:32:30.866Z,9.95
2022-12-08T14:34:57.310Z,11.05
2022-12-08T14:37:24.951Z,8.15
2022-12-08T14:39:51.551Z,8.23
2022-12-08T14:42:23.339Z,9.30
2022-12-08T14:44:55.334Z,8.07
2022-12-08T14:47:21.639Z,11.68
2022-12-08T14:49:48.137Z,7.97
2022-12-08T14:52:14.503Z,7.32
2022-12-08T14:54:42.795Z,8.80
2022-12-08T14:57:14.124Z,8.60
2022-12-08T14:59:41.352Z,8.45
2022-12-08T15:02:13.593Z,9.15
2022-12-08T15:04:42.263Z,7.07
2022-12-08T15:07:17.303Z,8.07
2022-12-08T15:09:44.828Z,10.43
2022-12-08T15:12:14.219Z,10.73
2022-12-08T15:14:41.660Z,16.77
2022-12-08T15:17:28.794Z,10.98
2022-12-08T15:19:56.088Z,8.55
2022-12-08T15:22:22.915Z,9.20
2022-12-08T15:24:49.188Z,8.55
2022-12-08T15:27:17.030Z,10.20
2022-12-08T15:29:43.336Z,6.57
2022-12-08T15:32:10.908Z,8.77
2022-12-08T15:34:37.503Z,6.00
2022-12-08T15:37:04.449Z,7.75
2022-12-08T15:39:32.825Z,10.35
2022-12-08T15:41:59.671Z,8.73
2022-12-08T15:44:26.090Z,10.93
2022-12-08T15:46:53.018Z,16.90
2022-12-08T15:49:21.237Z,15.50
2022-12-08T15:51:48.024Z,18.27
2022-12-08T15:54:14.404Z,17.48
2022-12-08T15:57:10.610Z,6.75
2022-12-08T15:59:30.859Z,9.48
2022-12-08T16:01:57.228Z,10.05
2022-12-08T16:07:22.322Z,9.98
2022-12-08T16:09:49.172Z,11.32
2022-12-08T16:13:26.777Z,8.90
2022-12-08T16:18:13.748Z,9.73
2022-12-08T16:21:06.095Z,11.35
2022-12-08T16:23:42.411Z,11.45
2022-12-08T16:26:44.419Z,7.85
2022-12-08T16:29:04.167Z,8.30
2022-12-08T16:31:30.606Z,8.02
2022-12-08T16:33:57.094Z,10.23
2022-12-08T16:36:23.509Z,8.75
2022-12-08T16:38:49.847Z,9.93
2022-12-08T16:41:35.872Z,11.30
2022-12-08T16:44:03.099Z,8.30
2022-12-08T16:46:29.543Z,10.55
2022-12-08T16:48:58.681Z,13.82
2022-12-08T16:51:27.358Z,10.25
2022-12-08T16:53:53.795Z,13.27
2022-12-08T16:56:23.347Z,16.02
2022-12-08T16:58:52.772Z,12.90
2022-12-08T17:01:19.155Z,12.43
2022-12-08T17:04:07.168Z,13.95
2022-12-08T17:06:32.468Z,12.00
2022-12-08T17:08:59.265Z,12.40
2022-12-08T17:11:28.210Z,7.95
2022-12-08T17:13:54.565Z,11.82
2022-12-08T17:16:21.131Z,33.75
2022-12-08T17:18:47.594Z,34.70
2022-12-08T17:21:15.540Z,30.65
2022-12-08T17:23:42.528Z,24.70
2022-12-08T17:26:09.061Z,18.35
2022-12-08T17:28:59.404Z,20.70
2022-12-08T17:31:26.105Z,13.65
2022-12-08T17:36:23.397Z,14.15
2022-12-08T17:38:49.727Z,14.73
2022-12-08T17:41:16.056Z,21.85
2022-12-08T17:43:42.891Z,21.23
2022-12-08T17:46:09.286Z,21.85
2022-12-08T17:48:35.680Z,22.80
2022-12-08T17:51:02.018Z,23.05
2022-12-08T17:53:30.636Z,22.42
2022-12-08T17:55:59.272Z,24.40
2022-12-08T17:58:25.987Z,22.45
2022-12-08T18:00:52.644Z,25.77
2022-12-08T18:03:19.099Z,21.67
2022-12-08T18:05:45.441Z,26.85
2022-12-08T18:08:12.167Z,25.80
2022-12-08T18:10:38.655Z,25.50
2022-12-08T18:13:05.593Z,25.70
2022-12-08T18:15:36.102Z,26.25
2022-12-08T18:18:05.456Z,31.45
2022-12-08T18:20:31.801Z,31.05
2022-12-08T18:22:58.220Z,37.75
2022-12-08T18:25:24.494Z,49.35
2022-12-08T18:27:50.851Z,41.78
2022-12-08T18:30:17.709Z,35.63
2022-12-08T18:32:44.178Z,32.25
2022-12-08T18:35:11.521Z,26.60
2022-12-08T18:37:38.257Z,26.02
2022-12-08T18:40:05.177Z,25.45
2022-12-08T18:42:32.097Z,26.77
2022-12-08T18:45:02.699Z,25.40
2022-12-08T18:47:29.183Z,21.80
2022-12-08T18:49:55.490Z,29.95
2022-12-08T18:52:28.194Z,32.78
2022-12-08T18:55:06.283Z,29.50
2022-12-08T18:57:33.522Z,30.73
2022-12-08T18:59:59.911Z,32.50
2022-12-08T19:02:26.224Z,28.77
2022-12-08T19:04:54.743Z,25.52
2022-12-08T19:07:21.117Z,28.33
2022-12-08T19:09:47.412Z,27.30
2022-12-08T19:12:13.835Z,25.65
2022-12-08T19:14:40.368Z,24.00
2022-12-08T19:17:07.139Z,26.73
2022-12-08T19:19:34.198Z,21.98
2022-12-08T19:22:00.502Z,23.38
2022-12-08T19:24:26.848Z,23.27
2022-12-08T19:26:53.220Z,25.30
2022-12-08T19:29:19.658Z,21.83
2022-12-08T19:31:46.081Z,21.35
2022-12-08T19:34:13.248Z,22.55
2022-12-08T19:36:42.608Z,20.27
2022-12-08T19:39:35.628Z,23.02
2022-12-08T19:42:20.393Z,27.50
2022-12-08T19:44:52.823Z,26.58
2022-12-08T19:47:26.538Z,30.83
2022-12-08T19:52:20.412Z,32.13
2022-12-08T19:54:47.220Z,34.38
2022-12-08T19:57:13.690Z,31.83
2022-12-08T19:59:40.128Z,31.75
2022-12-08T20:02:06.576Z,27.25
2022-12-08T20:04:33.202Z,27.92
2022-12-08T20:06:59.582Z,27.40
2022-12-08T20:09:25.996Z,31.23
2022-12-08T20:11:54.683Z,28.90
2022-12-08T20:14:22.001Z,32.97
2022-12-08T20:16:48.679Z,39.40
2022-12-08T20:19:15.156Z,37.95
2022-12-08T20:21:41.558Z,34.55
2022-12-08T20:24:08.039Z,35.78
2022-12-08T20:26:34.492Z,29.45
2022-12-08T20:29:00.890Z,29.35
2022-12-08T20:31:28.268Z,31.23
2022-12-08T20:33:54.802Z,29.38
2022-12-08T20:36:21.887Z,24.95
2022-12-08T20:38:49.179Z,23.23
2022-12-08T20:41:16.115Z,23.67
2022-12-08T20:43:46.381Z,22.85
2022-12-08T20:46:14.675Z,21.27
2022-12-08T20:48:41.490Z,26.67
2022-12-08T20:51:07.999Z,24.55
2022-12-08T20:53:34.464Z,21.45
2022-12-08T20:56:00.842Z,25.70
2022-12-08T20:58:27.268Z,25.35
2022-12-08T21:00:53.803Z,20.90
2022-12-08T21:03:20.415Z,24.45
2022-12-08T21:05:50.773Z,20.83
2022-12-08T21:08:17.746Z,19.98
2022-12-08T21:10:44.485Z,28.08
2022-12-08T21:13:11.052Z,30.08
2022-12-08T21:15:37.625Z,33.22
2022-12-08T21:18:04.216Z,31.83
2022-12-08T21:20:30.776Z,33.40
2022-12-08T21:22:57.090Z,35.88
2022-12-08T21:25:23.475Z,36.47
2022-12-08T21:27:49.926Z,34.95
2022-12-08T21:30:16.316Z,36.88
2022-12-08T21:32:43.073Z,36.70
2022-12-08T21:35:10.039Z,34.05
2022-12-08T21:37:36.470Z,31.27
2022-12-08T21:40:03.958Z,34.15
2022-12-08T21:42:46.206Z,30.15
2022-12-08T21:45:14.590Z,30.60
2022-12-08T21:47:41.375Z,31.33
2022-12-08T21:50:08.714Z,25.83
2022-12-08T21:52:39.189Z,28.92
2022-12-08T21:55:06.262Z,29.35
2022-12-08T21:57:32.926Z,29.45
2022-12-08T21:59:59.338Z,34.42
2022-12-08T22:02:25.780Z,36.33
2022-12-08T22:04:52.828Z,36.70
2022-12-08T22:07:19.964Z,38.03
2022-12-08T22:09:47.010Z,39.67
2022-12-08T22:12:14.242Z,39.20
2022-12-08T22:14:40.810Z,44.28
2022-12-08T22:17:07.423Z,37.35
2022-12-08T22:19:34.186Z,37.80
2022-12-08T22:22:00.723Z,41.35
2022-12-08T22:24:29.005Z,35.30
2022-12-08T22:26:55.331Z,34.90
2022-12-08T22:29:21.783Z,32.55
2022-12-08T22:31:48.178Z,31.70
2022-12-08T22:34:14.552Z,33.30
2022-12-08T22:36:42.193Z,31.02
2022-12-08T22:39:10.056Z,29.95
2022-12-08T22:41:36.533Z,31.30
2022-12-08T22:44:05.523Z,32.20
2022-12-08T22:46:31.836Z,29.08
2022-12-08T22:48:58.182Z,35.38
2022-12-08T22:51:24.667Z,28.33
2022-12-08T22:53:50.988Z,32.85
2022-12-08T22:56:17.703Z,31.15
2022-12-08T22:58:44.538Z,27.05
2022-12-08T23:01:24.593Z,27.67
2022-12-08T23:03:51.139Z,26.17
2022-12-08T23:06:17.984Z,29.55
2022-12-08T23:08:45.244Z,30.25
2022-12-08T23:11:12.176Z,28.17
2022-12-08T23:13:39.510Z,28.15
2022-12-08T23:16:09.180Z,34.90
2022-12-08T23:18:36.069Z,30.42
2022-12-08T23:21:06.404Z,40.55
2022-12-08T23:23:32.810Z,46.75
2022-12-08T23:25:59.250Z,39.55
2022-12-08T23:28:25.790Z,37.08
2022-12-08T23:30:52.510Z,34.65
2022-12-08T23:33:18.906Z,31.58
2022-12-08T23:35:45.366Z,29.35
2022-12-08T23:38:11.766Z,30.77
2022-12-08T23:40:38.156Z,27.73
2022-12-08T23:43:05.971Z,30.85
2022-12-08T23:45:32.465Z,29.60
2022-12-08T23:47:58.760Z,28.77
2022-12-08T23:50:25.070Z,26.83
2022-12-08T23:52:51.373Z,28.08
2022-12-08T23:55:17.698Z,28.58
2022-12-08T23:57:44.108Z,28.67
